createdAt,value
2023-07-25T00:02:28.266Z,6.60
2023-07-25T00:04:56.292Z,6.60
2023-07-25T00:07:24.518Z,6.53
2023-07-25T00:09:53.186Z,7.03
2023-07-25T00:12:21.286Z,7.15
2023-07-25T00:14:50.780Z,6.72
2023-07-25T00:17:19.109Z,6.75
2023-07-25T00:19:47.449Z,6.85
2023-07-25T00:22:15.505Z,7.18
2023-07-25T00:24:43.592Z,6.75
2023-07-25T00:27:11.765Z,7.63
2023-07-25T00:29:40.140Z,5.95
2023-07-25T00:32:10.382Z,6.30
2023-07-25T00:34:38.455Z,6.53
2023-07-25T00:37:07.111Z,6.80
2023-07-25T00:39:35.500Z,6.65
2023-07-25T00:42:03.597Z,7.00
2023-07-25T00:44:32.029Z,6.40
2023-07-25T00:47:00.144Z,6.72
2023-07-25T00:49:29.835Z,6.70
2023-07-25T00:51:58.196Z,6.50
2023-07-25T00:54:26.662Z,6.47
2023-07-25T00:56:55.001Z,6.80
2023-07-25T00:59:23.042Z,6.88
2023-07-25T01:01:51.592Z,6.53
2023-07-25T01:04:19.985Z,7.15
2023-07-25T01:06:50.434Z,7.15
2023-07-25T01:09:18.785Z,7.22
2023-07-25T01:11:47.174Z,6.40
2023-07-25T01:14:15.559Z,7.13
2023-07-25T01:16:43.907Z,6.80
2023-07-25T01:19:13.215Z,6.85
2023-07-25T01:21:41.634Z,6.97
2023-07-25T01:24:11.143Z,6.82
2023-07-25T01:26:39.253Z,6.85
2023-07-25T01:29:07.415Z,6.72
2023-07-25T01:31:35.504Z,6.80
2023-07-25T01:34:03.620Z,6.07
2023-07-25T01:36:32.029Z,5.95
2023-07-25T01:39:00.089Z,5.95
2023-07-25T01:41:29.821Z,6.35
2023-07-25T01:43:58.369Z,6.35
2023-07-25T01:46:26.410Z,6.28
2023-07-25T01:48:54.778Z,6.18
2023-07-25T01:51:22.818Z,7.68
2023-07-25T01:53:51.969Z,6.38
2023-07-25T01:56:20.037Z,6.18
2023-07-25T01:58:49.506Z,6.03
2023-07-25T02:01:17.616Z,6.40
2023-07-25T02:03:46.046Z,6.63
2023-07-25T02:06:14.154Z,6.55
2023-07-25T02:08:42.209Z,6.70
2023-07-25T02:11:10.724Z,6.50
2023-07-25T02:13:38.789Z,7.15
2023-07-25T02:16:08.525Z,6.25
2023-07-25T02:18:36.677Z,6.53
2023-07-25T02:21:05.185Z,6.50
2023-07-25T02:23:33.254Z,7.18
2023-07-25T02:26:01.354Z,6.15
2023-07-25T02:28:29.441Z,6.30
2023-07-25T02:30:57.820Z,7.00
2023-07-25T02:33:27.356Z,6.78
2023-07-25T02:35:55.414Z,6.63
2023-07-25T02:38:23.758Z,6.90
2023-07-25T02:40:52.122Z,7.13
2023-07-25T02:43:23.424Z,6.30
2023-07-25T02:45:51.577Z,6.38
2023-07-25T02:48:19.877Z,6.13
2023-07-25T02:50:49.391Z,6.65
2023-07-25T02:53:17.531Z,6.53
2023-07-25T02:55:45.758Z,6.45
2023-07-25T02:58:14.252Z,6.03
2023-07-25T03:00:42.685Z,6.05
2023-07-25T03:03:10.770Z,6.78
2023-07-25T03:05:38.864Z,6.78
2023-07-25T03:08:08.329Z,6.45
2023-07-25T03:10:36.701Z,7.22
2023-07-25T03:13:04.764Z,6.25
2023-07-25T03:15:32.865Z,6.00
2023-07-25T03:18:01.008Z,6.45
2023-07-25T03:20:29.106Z,5.72
2023-07-25T03:22:57.792Z,6.72
2023-07-25T03:25:27.240Z,6.25
2023-07-25T03:27:55.322Z,6.47
2023-07-25T03:30:23.399Z,6.70
2023-07-25T03:32:51.456Z,6.50
2023-07-25T03:35:20.065Z,6.20
2023-07-25T03:37:48.122Z,7.10
2023-07-25T03:40:16.495Z,6.07
2023-07-25T03:42:45.884Z,6.30
2023-07-25T03:45:13.934Z,6.72
2023-07-25T03:47:42.036Z,6.50
2023-07-25T03:50:10.647Z,6.70
2023-07-25T03:52:38.711Z,6.15
2023-07-25T03:55:07.625Z,6.07
2023-07-25T03:57:36.239Z,6.18
2023-07-25T04:00:06.636Z,6.40
2023-07-25T04:02:34.742Z,6.38
2023-07-25T04:05:03.253Z,6.50
2023-07-25T04:07:31.755Z,6.35
2023-07-25T04:09:59.794Z,6.10
2023-07-25T04:12:27.843Z,5.88
2023-07-25T04:14:55.878Z,6.43
2023-07-25T04:17:25.453Z,6.68
2023-07-25T04:19:53.501Z,6.80
2023-07-25T04:22:21.858Z,7.05
2023-07-25T04:24:50.408Z,7.20
2023-07-25T04:27:18.819Z,6.20
2023-07-25T04:29:46.849Z,6.22
2023-07-25T04:32:15.199Z,7.38
2023-07-25T04:34:44.665Z,7.05
2023-07-25T04:37:12.727Z,6.90
2023-07-25T04:39:40.786Z,6.47
2023-07-25T04:42:09.172Z,5.97
2023-07-25T04:44:37.214Z,6.85
2023-07-25T04:47:05.687Z,6.35
2023-07-25T04:49:34.001Z,6.20
2023-07-25T04:52:03.846Z,6.45
2023-07-25T04:54:31.958Z,5.90
2023-07-25T04:57:00.287Z,6.40
2023-07-25T04:59:28.636Z,7.07
2023-07-25T05:01:56.668Z,8.13
2023-07-25T05:04:25.128Z,6.78
2023-07-25T05:06:53.345Z,7.18
2023-07-25T05:09:22.812Z,6.60
2023-07-25T05:11:52.486Z,6.60
2023-07-25T05:14:20.960Z,6.65
2023-07-25T05:16:49.378Z,6.57
2023-07-25T05:19:17.545Z,6.43
2023-07-25T05:21:45.656Z,6.78
2023-07-25T05:24:14.102Z,7.70
2023-07-25T05:26:43.633Z,7.78
2023-07-25T05:29:11.710Z,7.25
2023-07-25T05:31:39.854Z,6.88
2023-07-25T05:34:08.258Z,7.57
2023-07-25T05:36:36.356Z,8.23
2023-07-25T05:39:05.090Z,7.03
2023-07-25T05:41:33.333Z,7.45
2023-07-25T05:44:03.044Z,7.70
2023-07-25T05:46:31.152Z,7.18
2023-07-25T05:48:59.424Z,8.48
2023-07-25T05:51:27.819Z,7.45
2023-07-25T05:53:56.198Z,8.30
2023-07-25T05:56:24.406Z,6.78
2023-07-25T05:58:52.444Z,7.00
2023-07-25T06:01:22.020Z,7.03
2023-07-25T06:03:51.201Z,7.28
2023-07-25T06:06:19.287Z,7.68
2023-07-25T06:08:47.838Z,7.70
2023-07-25T06:11:16.842Z,7.28
2023-07-25T06:13:45.518Z,6.78
2023-07-25T06:16:15.089Z,6.22
2023-07-25T06:18:44.492Z,6.55
2023-07-25T06:21:12.918Z,6.03
2023-07-25T06:23:41.017Z,6.00
2023-07-25T06:26:09.116Z,5.65
2023-07-25T06:28:37.193Z,5.65
2023-07-25T06:31:05.643Z,5.80
2023-07-25T06:33:34.012Z,6.97
2023-07-25T06:36:03.478Z,5.57
2023-07-25T06:38:31.982Z,5.78
2023-07-25T06:41:00.467Z,5.70
2023-07-25T06:43:28.869Z,5.78
2023-07-25T06:45:56.909Z,5.25
2023-07-25T06:48:25.028Z,5.03
2023-07-25T06:50:53.063Z,5.55
2023-07-25T06:53:22.740Z,5.32
2023-07-25T06:55:51.100Z,5.65
2023-07-25T06:58:19.220Z,5.55
2023-07-25T07:00:48.048Z,5.45
2023-07-25T07:03:16.606Z,5.55
2023-07-25T07:05:54.127Z,5.72
2023-07-25T07:08:23.792Z,6.57
2023-07-25T07:10:54.708Z,5.40
2023-07-25T07:13:22.963Z,5.28
2023-07-25T07:15:51.453Z,5.45
2023-07-25T07:18:19.679Z,6.05
2023-07-25T07:20:49.597Z,4.53
2023-07-25T07:23:18.144Z,5.32
2023-07-25T07:25:48.047Z,5.47
2023-07-25T07:28:16.204Z,6.35
2023-07-25T07:30:49.527Z,7.18
2023-07-25T07:33:17.681Z,5.63
2023-07-25T07:35:45.739Z,6.25
2023-07-25T07:38:14.433Z,6.20
2023-07-25T07:40:42.479Z,6.38
2023-07-25T07:43:11.929Z,5.68
2023-07-25T07:45:39.982Z,5.70
2023-07-25T07:48:08.110Z,5.25
2023-07-25T07:50:36.482Z,5.43
2023-07-25T07:53:04.612Z,5.65
2023-07-25T07:55:32.714Z,5.43
2023-07-25T07:58:01.410Z,5.22
2023-07-25T08:00:31.006Z,5.15
2023-07-25T08:02:59.319Z,5.88
2023-07-25T08:05:27.528Z,5.72
2023-07-25T08:07:55.636Z,5.63
2023-07-25T08:10:26.238Z,5.80
2023-07-25T08:12:54.354Z,5.35
2023-07-25T08:15:22.524Z,4.72
2023-07-25T08:17:52.166Z,6.20
2023-07-25T08:20:20.566Z,5.32
2023-07-25T08:22:49.511Z,4.50
2023-07-25T08:25:17.749Z,4.82
2023-07-25T08:27:45.817Z,5.07
2023-07-25T08:30:14.098Z,5.60
2023-07-25T08:32:42.175Z,4.82
2023-07-25T08:35:11.715Z,4.78
2023-07-25T08:37:39.869Z,4.80
2023-07-25T08:40:09.433Z,5.20
2023-07-25T08:42:39.245Z,5.55
2023-07-25T08:45:09.515Z,5.47
2023-07-25T08:47:42.645Z,5.10
2023-07-25T08:50:17.242Z,5.32
2023-07-25T08:52:51.790Z,4.97
2023-07-25T08:55:20.292Z,5.03
2023-07-25T08:57:48.973Z,4.82
2023-07-25T09:00:19.179Z,4.68
2023-07-25T09:02:51.748Z,4.70
2023-07-25T09:05:24.073Z,4.43
2023-07-25T09:07:52.219Z,4.68
2023-07-25T09:10:20.301Z,5.47
2023-07-25T09:12:48.700Z,4.57
2023-07-25T09:15:16.811Z,5.20
2023-07-25T09:17:44.861Z,5.63
2023-07-25T09:20:14.587Z,5.28
2023-07-25T09:22:48.556Z,5.18
2023-07-25T09:25:17.247Z,5.20
2023-07-25T09:27:46.780Z,4.32
2023-07-25T09:30:16.300Z,5.55
2023-07-25T09:32:48.488Z,4.45
2023-07-25T09:35:16.660Z,4.82
2023-07-25T09:37:53.544Z,4.53
2023-07-25T09:40:21.583Z,5.18
2023-07-25T09:42:52.298Z,4.22
2023-07-25T09:45:21.145Z,4.88
2023-07-25T09:47:54.369Z,4.55
2023-07-25T09:50:27.938Z,4.72
2023-07-25T09:53:02.212Z,4.85
2023-07-25T09:55:30.319Z,4.95
2023-07-25T09:57:58.675Z,4.97
2023-07-25T10:00:26.854Z,5.05
2023-07-25T10:02:55.417Z,4.97
2023-07-25T10:05:23.909Z,4.57
2023-07-25T10:07:55.466Z,4.32
2023-07-25T10:10:28.627Z,4.88
2023-07-25T10:12:56.906Z,4.75
2023-07-25T10:15:25.256Z,4.90
2023-07-25T10:17:53.450Z,3.88
2023-07-25T10:20:23.560Z,5.78
2023-07-25T10:22:52.502Z,4.80
2023-07-25T10:25:22.073Z,4.43
2023-07-25T10:27:56.854Z,5.07
2023-07-25T10:30:26.743Z,4.57
2023-07-25T10:33:00.791Z,5.35
2023-07-25T10:35:50.310Z,4.78
2023-07-25T10:38:24.749Z,5.68
2023-07-25T10:40:55.127Z,5.50
2023-07-25T10:43:29.092Z,5.65
2023-07-25T10:45:58.234Z,6.03
2023-07-25T10:48:33.916Z,5.20
2023-07-25T10:51:05.053Z,5.93
2023-07-25T10:53:33.253Z,5.43
2023-07-25T10:56:14.900Z,5.13
2023-07-25T10:59:09.326Z,6.22
2023-07-25T11:01:49.277Z,5.90
2023-07-25T11:04:29.479Z,5.28
2023-07-25T11:06:59.510Z,4.50
2023-07-25T11:09:28.725Z,5.00
2023-07-25T11:11:57.393Z,5.57
2023-07-25T11:14:27.204Z,5.45
2023-07-25T11:16:56.085Z,5.35
2023-07-25T11:19:28.079Z,6.18
2023-07-25T11:21:56.470Z,5.40
2023-07-25T11:24:24.665Z,5.55
2023-07-25T11:26:52.739Z,6.70
2023-07-25T11:29:21.929Z,6.10
2023-07-25T11:31:51.893Z,5.80
2023-07-25T11:34:21.909Z,6.93
2023-07-25T11:36:50.093Z,6.30
2023-07-25T11:39:20.127Z,6.78
2023-07-25T11:41:48.331Z,6.35
2023-07-25T11:44:18.138Z,6.20
2023-07-25T11:46:48.801Z,6.57
2023-07-25T11:49:31.883Z,5.40
2023-07-25T11:52:07.717Z,5.57
2023-07-25T11:54:36.521Z,6.25
2023-07-25T11:57:07.578Z,6.32
2023-07-25T11:59:41.413Z,5.18
2023-07-25T12:02:10.030Z,6.78
2023-07-25T12:04:45.982Z,6.80
2023-07-25T12:07:14.578Z,6.28
2023-07-25T12:09:52.406Z,6.45
2023-07-25T12:12:20.992Z,6.28
2023-07-25T12:14:56.471Z,6.03
2023-07-25T12:17:24.639Z,7.13
2023-07-25T12:19:58.476Z,6.22
2023-07-25T12:22:26.560Z,6.45
2023-07-25T12:24:54.651Z,5.95
2023-07-25T12:27:23.021Z,5.43
2023-07-25T12:29:51.078Z,5.13
2023-07-25T12:32:19.138Z,5.40
2023-07-25T12:34:47.158Z,5.13
2023-07-25T12:37:16.704Z,5.45
2023-07-25T12:39:46.247Z,5.57
2023-07-25T12:42:14.392Z,5.35
2023-07-25T12:44:42.460Z,5.38
2023-07-25T12:47:10.504Z,5.32
2023-07-25T12:49:38.583Z,5.75
2023-07-25T12:52:07.626Z,5.65
2023-07-25T12:54:37.451Z,5.68
2023-07-25T12:57:06.169Z,4.95
2023-07-25T12:59:34.323Z,5.95
2023-07-25T13:02:02.428Z,5.57
2023-07-25T13:04:32.298Z,4.60
2023-07-25T13:07:00.520Z,5.80
2023-07-25T13:09:28.630Z,5.35
2023-07-25T13:11:58.064Z,6.25
2023-07-25T13:14:26.252Z,6.22
2023-07-25T13:16:54.615Z,5.47
2023-07-25T13:19:22.804Z,6.43
2023-07-25T13:21:50.890Z,5.80
2023-07-25T13:24:18.935Z,5.07
2023-07-25T13:26:47.088Z,5.53
2023-07-25T13:29:16.525Z,5.60
2023-07-25T13:31:44.681Z,4.40
2023-07-25T13:34:13.998Z,4.95
2023-07-25T13:36:42.057Z,4.28
2023-07-25T13:39:10.132Z,4.28
2023-07-25T13:41:38.185Z,4.70
2023-07-25T13:44:06.430Z,5.18
2023-07-25T13:46:37.070Z,5.50
2023-07-25T13:49:05.168Z,4.43
2023-07-25T13:51:33.513Z,5.03
2023-07-25T13:54:02.015Z,4.78
2023-07-25T13:56:30.072Z,4.88
2023-07-25T13:58:58.090Z,5.78
2023-07-25T14:01:26.360Z,4.97
2023-07-25T14:03:55.808Z,5.13
2023-07-25T14:06:23.919Z,5.28
2023-07-25T14:08:52.766Z,4.63
2023-07-25T14:11:22.246Z,5.43
2023-07-25T14:13:51.543Z,5.05
2023-07-25T14:16:19.805Z,5.28
2023-07-25T14:18:48.260Z,5.65
2023-07-25T14:21:18.691Z,5.68
2023-07-25T14:23:47.023Z,4.63
2023-07-25T14:26:15.602Z,5.20
2023-07-25T14:28:43.617Z,4.68
2023-07-25T14:31:11.726Z,5.18
2023-07-25T14:33:39.954Z,5.03
2023-07-25T14:36:08.095Z,5.13
2023-07-25T14:38:37.490Z,5.43
2023-07-25T14:41:05.609Z,4.15
2023-07-25T14:43:33.693Z,4.90
2023-07-25T14:46:01.808Z,4.85
2023-07-25T14:48:33.659Z,4.20
2023-07-25T14:51:01.890Z,4.72
2023-07-25T14:53:31.452Z,4.35
2023-07-25T14:56:00.982Z,4.72
2023-07-25T14:58:29.239Z,3.95
2023-07-25T15:00:57.769Z,4.07
2023-07-25T15:03:26.352Z,5.30
2023-07-25T15:05:54.769Z,4.28
2023-07-25T15:08:23.042Z,4.20
2023-07-25T15:10:51.670Z,4.13
2023-07-25T15:13:21.228Z,3.88
2023-07-25T15:15:49.380Z,3.45
2023-07-25T15:18:17.653Z,3.72
2023-07-25T15:20:46.973Z,3.38
2023-07-25T15:23:15.373Z,4.53
2023-07-25T15:25:44.017Z,4.93
2023-07-25T15:28:12.506Z,3.58
2023-07-25T15:30:42.127Z,4.43
2023-07-25T15:33:12.199Z,3.92
2023-07-25T15:35:40.910Z,3.75
2023-07-25T15:38:10.466Z,3.60
2023-07-25T15:40:38.846Z,4.55
2023-07-25T15:43:10.457Z,4.15
2023-07-25T15:45:39.218Z,3.92
2023-07-25T15:48:09.016Z,4.70
2023-07-25T15:50:37.454Z,3.38
2023-07-25T15:53:06.293Z,4.32
2023-07-25T15:55:34.409Z,3.95
2023-07-25T15:58:02.681Z,3.58
2023-07-25T16:00:33.107Z,4.22
2023-07-25T16:03:01.852Z,3.97
2023-07-25T16:05:31.608Z,3.83
2023-07-25T16:07:59.843Z,4.70
2023-07-25T16:10:28.509Z,3.85
2023-07-25T16:12:58.455Z,4.45
2023-07-25T16:15:33.039Z,4.05
2023-07-25T16:18:01.489Z,3.95
2023-07-25T16:20:31.288Z,3.72
2023-07-25T16:22:59.734Z,4.10
2023-07-25T16:25:28.176Z,4.32
2023-07-25T16:27:56.970Z,3.40
2023-07-25T16:30:25.243Z,4.05
2023-07-25T16:32:53.421Z,3.90
2023-07-25T16:35:22.049Z,4.15
2023-07-25T16:37:51.946Z,3.80
2023-07-25T16:40:20.254Z,4.05
2023-07-25T16:42:49.062Z,4.15
2023-07-25T16:45:17.208Z,4.22
2023-07-25T16:47:45.472Z,4.72
2023-07-25T16:50:13.544Z,4.63
2023-07-25T16:52:41.635Z,4.63
2023-07-25T16:55:11.503Z,4.53
2023-07-25T16:57:39.573Z,4.80
2023-07-25T17:00:09.806Z,4.53
2023-07-25T17:02:38.155Z,4.53
2023-07-25T17:05:07.122Z,4.40
2023-07-25T17:07:35.244Z,3.80
2023-07-25T17:10:03.382Z,4.05
2023-07-25T17:12:33.077Z,3.95
2023-07-25T17:15:01.409Z,4.57
2023-07-25T17:17:30.074Z,4.22
2023-07-25T17:19:58.151Z,4.25
2023-07-25T17:22:27.971Z,3.63
2023-07-25T17:24:57.764Z,3.42
2023-07-25T17:27:26.263Z,3.88
2023-07-25T17:29:55.717Z,4.00
2023-07-25T17:32:23.927Z,3.92
2023-07-25T17:34:52.429Z,4.07
2023-07-25T17:37:20.793Z,3.70
2023-07-25T17:39:49.433Z,3.30
2023-07-25T17:42:17.517Z,3.47
2023-07-25T17:44:45.607Z,3.70
2023-07-25T17:47:15.114Z,3.53
2023-07-25T17:49:43.229Z,3.25
2023-07-25T17:52:11.713Z,2.78
2023-07-25T17:54:39.756Z,3.45
2023-07-25T17:57:07.934Z,3.65
2023-07-25T17:59:35.998Z,3.35
2023-07-25T18:02:04.118Z,3.72
2023-07-25T18:04:33.614Z,3.50
2023-07-25T18:07:02.092Z,3.28
2023-07-25T18:09:30.540Z,3.22
2023-07-25T18:11:58.805Z,3.08
2023-07-25T18:14:27.091Z,3.60
2023-07-25T18:16:55.280Z,2.92
2023-07-25T18:19:23.746Z,3.42
2023-07-25T18:21:53.727Z,4.10
2023-07-25T18:24:21.866Z,3.40
2023-07-25T18:26:51.503Z,3.33
2023-07-25T18:29:20.108Z,2.83
2023-07-25T18:31:48.321Z,2.95
2023-07-25T18:34:16.548Z,2.53
2023-07-25T18:36:44.993Z,2.85
2023-07-25T18:39:15.865Z,2.50
2023-07-25T18:41:44.443Z,2.78
2023-07-25T18:44:12.581Z,2.78
2023-07-25T18:46:41.178Z,3.13
2023-07-25T18:49:09.525Z,2.70
2023-07-25T18:51:38.044Z,3.13
2023-07-25T18:54:06.303Z,3.83
2023-07-25T18:56:36.152Z,2.75
2023-07-25T18:59:05.216Z,3.15
2023-07-25T19:01:36.049Z,3.08
2023-07-25T19:04:04.579Z,3.22
2023-07-25T19:06:33.279Z,3.17
2023-07-25T19:09:01.730Z,2.53
2023-07-25T19:11:29.950Z,3.10
2023-07-25T19:13:59.670Z,3.08
2023-07-25T19:16:28.226Z,2.97
2023-07-25T19:18:56.594Z,3.22
2023-07-25T19:21:25.015Z,3.03
2023-07-25T19:23:53.351Z,3.03
2023-07-25T19:26:23.458Z,2.75
2023-07-25T19:28:51.966Z,3.08
2023-07-25T19:31:21.654Z,3.05
2023-07-25T19:33:49.940Z,2.90
2023-07-25T19:36:18.223Z,2.67
2023-07-25T19:38:47.772Z,3.53
2023-07-25T19:41:17.067Z,2.72
2023-07-25T19:43:45.505Z,3.17
2023-07-25T19:46:14.051Z,3.17
2023-07-25T19:48:43.660Z,2.72
2023-07-25T19:51:12.202Z,2.83
2023-07-25T19:53:41.062Z,3.25
2023-07-25T19:56:09.908Z,3.50
2023-07-25T19:58:38.231Z,3.13
2023-07-25T20:01:10.576Z,2.90
2023-07-25T20:03:39.584Z,3.20
2023-07-25T20:06:10.696Z,3.22
2023-07-25T20:08:39.575Z,3.17
2023-07-25T20:11:08.678Z,2.83
2023-07-25T20:13:38.083Z,2.50
2023-07-25T20:16:07.335Z,2.83
2023-07-25T20:18:35.919Z,2.53
2023-07-25T20:21:11.093Z,3.15
2023-07-25T20:23:41.290Z,2.88
2023-07-25T20:26:09.689Z,3.15
2023-07-25T20:28:37.796Z,3.03
2023-07-25T20:31:06.406Z,3.30
2023-07-25T20:33:35.397Z,2.75
2023-07-25T20:36:03.751Z,3.00
2023-07-25T20:38:33.573Z,2.92
2023-07-25T20:41:04.661Z,2.80
2023-07-25T20:43:32.926Z,2.97
2023-07-25T20:46:04.373Z,2.88
2023-07-25T20:48:33.057Z,2.80
2023-07-25T20:51:01.602Z,2.67
2023-07-25T20:53:30.067Z,3.10
2023-07-25T20:55:58.756Z,3.20
2023-07-25T20:58:28.286Z,3.27
2023-07-25T21:00:56.525Z,3.20
2023-07-25T21:03:24.892Z,3.17
2023-07-25T21:05:53.290Z,2.93
2023-07-25T21:08:21.548Z,2.97
2023-07-25T21:10:51.294Z,3.40
2023-07-25T21:13:19.689Z,3.23
2023-07-25T21:15:50.543Z,3.07
2023-07-25T21:18:19.039Z,2.73
2023-07-25T21:20:47.460Z,2.90
2023-07-25T21:23:15.951Z,3.13
2023-07-25T21:25:46.063Z,3.07
2023-07-25T21:28:14.413Z,2.87
2023-07-25T21:30:43.005Z,2.77
2023-07-25T21:33:12.606Z,3.00
2023-07-25T21:35:41.019Z,2.60
2023-07-25T21:38:10.213Z,2.90
2023-07-25T21:40:38.615Z,3.00
2023-07-25T21:43:06.799Z,2.80
2023-07-25T21:45:35.520Z,2.70
2023-07-25T21:48:04.102Z,3.20
2023-07-25T21:50:33.792Z,2.97
2023-07-25T21:53:02.195Z,3.33
2023-07-25T21:55:30.325Z,3.40
2023-07-25T21:57:58.751Z,4.40
2023-07-25T22:00:26.913Z,3.40
2023-07-25T22:02:55.429Z,2.90
2023-07-25T22:05:23.874Z,3.33
2023-07-25T22:07:53.586Z,2.77
2023-07-25T22:10:22.042Z,3.23
2023-07-25T22:12:52.302Z,3.10
2023-07-25T22:15:21.000Z,2.90
2023-07-25T22:17:49.520Z,3.40
2023-07-25T22:20:18.265Z,2.83
2023-07-25T22:22:46.662Z,2.97
2023-07-25T22:25:16.137Z,3.10
2023-07-25T22:27:44.650Z,3.07
2023-07-25T22:30:13.431Z,3.03
2023-07-25T22:32:41.604Z,3.00
2023-07-25T22:35:10.920Z,2.97
2023-07-25T22:37:39.061Z,2.70
2023-07-25T22:40:08.354Z,3.10
2023-07-25T22:42:46.149Z,3.00
2023-07-25T22:45:14.671Z,2.70
2023-07-25T22:47:42.815Z,2.67
2023-07-25T22:50:11.301Z,3.00
2023-07-25T22:52:39.669Z,2.70
2023-07-25T22:55:08.788Z,2.97
2023-07-25T22:57:38.163Z,2.63
2023-07-25T23:00:09.235Z,2.53
2023-07-25T23:02:37.701Z,3.23
2023-07-25T23:05:06.730Z,2.83
2023-07-25T23:07:35.155Z,3.23
2023-07-25T23:10:03.683Z,3.47
2023-07-25T23:12:31.848Z,3.07
2023-07-25T23:15:00.229Z,2.87
2023-07-25T23:17:29.777Z,3.30
2023-07-25T23:19:57.849Z,2.97
2023-07-25T23:22:26.265Z,3.50
2023-07-25T23:24:54.759Z,3.20
2023-07-25T23:27:22.849Z,3.53
2023-07-25T23:29:51.252Z,3.33
2023-07-25T23:32:19.668Z,3.57
2023-07-25T23:34:50.929Z,2.80
2023-07-25T23:37:19.592Z,3.50
2023-07-25T23:39:48.007Z,3.13
2023-07-25T23:42:16.585Z,3.27
2023-07-25T23:44:44.654Z,3.20
2023-07-25T23:47:13.547Z,3.40
2023-07-25T23:49:42.033Z,3.10
2023-07-25T23:52:11.553Z,3.10
2023-07-25T23:54:40.094Z,3.53
2023-07-25T23:57:08.317Z,2.80
2023-07-25T23:59:37.484Z,3.30
